sensor_id;sensor_type;location;lat;lon;timestamp;P1;durP1;ratioP1;P2;durP2;ratioP2
15312;SDS011;7757;52.626;4.746;2023-05-28T00:02:17;10.95;;;3.13;;
15312;SDS011;7757;52.626;4.746;2023-05-28T00:04:42;10.88;;;3.03;;
15312;SDS011;7757;52.626;4.746;2023-05-28T00:07:09;10.00;;;2.83;;
15312;SDS011;7757;52.626;4.746;2023-05-28T00:09:36;11.63;;;3.05;;
15312;SDS011;7757;52.626;4.746;2023-05-28T00:12:01;10.80;;;3.00;;
15312;SDS011;7757;52.626;4.746;2023-05-28T00:14:27;12.70;;;2.85;;
15312;SDS011;7757;52.626;4.746;2023-05-28T00:16:52;10.55;;;3.03;;
15312;SDS011;7757;52.626;4.746;2023-05-28T00:19:18;11.13;;;2.83;;
15312;SDS011;7757;52.626;4.746;2023-05-28T00:21:43;20.77;;;3.30;;
15312;SDS011;7757;52.626;4.746;2023-05-28T00:24:08;9.90;;;2.65;;
15312;SDS011;7757;52.626;4.746;2023-05-28T00:26:34;11.45;;;2.70;;
15312;SDS011;7757;52.626;4.746;2023-05-28T00:29:02;11.52;;;2.97;;
15312;SDS011;7757;52.626;4.746;2023-05-28T00:31:27;10.90;;;3.10;;
15312;SDS011;7757;52.626;4.746;2023-05-28T00:33:52;9.98;;;2.70;;
15312;SDS011;7757;52.626;4.746;2023-05-28T00:36:18;11.93;;;3.42;;
15312;SDS011;7757;52.626;4.746;2023-05-28T00:38:43;11.85;;;3.10;;
15312;SDS011;7757;52.626;4.746;2023-05-28T00:41:12;8.95;;;2.60;;
15312;SDS011;7757;52.626;4.746;2023-05-28T00:43:37;9.80;;;2.90;;
15312;SDS011;7757;52.626;4.746;2023-05-28T00:46:03;9.77;;;2.70;;
15312;SDS011;7757;52.626;4.746;2023-05-28T00:48:33;12.35;;;3.20;;
15312;SDS011;7757;52.626;4.746;2023-05-28T00:50:59;10.90;;;3.05;;
15312;SDS011;7757;52.626;4.746;2023-05-28T00:53:24;11.52;;;3.03;;
15312;SDS011;7757;52.626;4.746;2023-05-28T00:55:50;10.38;;;2.53;;
15312;SDS011;7757;52.626;4.746;2023-05-28T00:58:17;11.38;;;2.95;;
15312;SDS011;7757;52.626;4.746;2023-05-28T01:00:44;10.05;;;2.47;;
15312;SDS011;7757;52.626;4.746;2023-05-28T01:03:10;10.27;;;2.80;;
15312;SDS011;7757;52.626;4.746;2023-05-28T01:05:35;11.48;;;3.22;;
15312;SDS011;7757;52.626;4.746;2023-05-28T01:08:02;12.30;;;2.85;;
15312;SDS011;7757;52.626;4.746;2023-05-28T01:10:31;10.25;;;3.08;;
15312;SDS011;7757;52.626;4.746;2023-05-28T01:12:58;10.43;;;2.65;;
15312;SDS011;7757;52.626;4.746;2023-05-28T01:15:25;11.27;;;2.90;;
15312;SDS011;7757;52.626;4.746;2023-05-28T01:17:58;11.15;;;2.78;;
15312;SDS011;7757;52.626;4.746;2023-05-28T01:20:28;9.32;;;2.50;;
15312;SDS011;7757;52.626;4.746;2023-05-28T01:22:55;12.63;;;3.10;;
15312;SDS011;7757;52.626;4.746;2023-05-28T01:25:25;10.48;;;3.03;;
15312;SDS011;7757;52.626;4.746;2023-05-28T01:27:52;12.18;;;2.83;;
15312;SDS011;7757;52.626;4.746;2023-05-28T01:30:18;12.30;;;2.88;;
15312;SDS011;7757;52.626;4.746;2023-05-28T01:32:43;11.00;;;3.08;;
15312;SDS011;7757;52.626;4.746;2023-05-28T01:35:12;10.32;;;2.95;;
15312;SDS011;7757;52.626;4.746;2023-05-28T01:37:43;11.02;;;2.55;;
15312;SDS011;7757;52.626;4.746;2023-05-28T01:40:13;10.75;;;2.67;;
15312;SDS011;7757;52.626;4.746;2023-05-28T01:42:41;10.45;;;2.92;;
15312;SDS011;7757;52.626;4.746;2023-05-28T01:45:09;10.20;;;2.80;;
15312;SDS011;7757;52.626;4.746;2023-05-28T01:47:39;10.90;;;3.20;;
15312;SDS011;7757;52.626;4.746;2023-05-28T01:50:06;11.43;;;2.67;;
15312;SDS011;7757;52.626;4.746;2023-05-28T01:52:38;10.43;;;2.72;;
15312;SDS011;7757;52.626;4.746;2023-05-28T01:55:03;11.57;;;2.72;;
15312;SDS011;7757;52.626;4.746;2023-05-28T01:57:30;11.15;;;2.85;;
15312;SDS011;7757;52.626;4.746;2023-05-28T01:59:55;9.48;;;2.58;;
15312;SDS011;7757;52.626;4.746;2023-05-28T02:02:24;11.23;;;2.83;;
15312;SDS011;7757;52.626;4.746;2023-05-28T02:04:51;9.55;;;2.67;;
15312;SDS011;7757;52.626;4.746;2023-05-28T02:07:17;11.77;;;3.00;;
15312;SDS011;7757;52.626;4.746;2023-05-28T02:09:43;11.73;;;2.70;;
15312;SDS011;7757;52.626;4.746;2023-05-28T02:12:08;10.63;;;2.92;;
15312;SDS011;7757;52.626;4.746;2023-05-28T02:14:33;8.70;;;2.53;;
15312;SDS011;7757;52.626;4.746;2023-05-28T02:16:59;10.40;;;2.60;;
15312;SDS011;7757;52.626;4.746;2023-05-28T02:19:24;10.65;;;2.80;;
15312;SDS011;7757;52.626;4.746;2023-05-28T02:21:50;11.70;;;3.00;;
15312;SDS011;7757;52.626;4.746;2023-05-28T02:24:18;12.82;;;3.10;;
15312;SDS011;7757;52.626;4.746;2023-05-28T02:26:44;10.32;;;2.72;;
15312;SDS011;7757;52.626;4.746;2023-05-28T02:29:09;11.05;;;2.58;;
15312;SDS011;7757;52.626;4.746;2023-05-28T02:31:34;9.07;;;2.60;;
15312;SDS011;7757;52.626;4.746;2023-05-28T02:34:00;11.35;;;2.88;;
15312;SDS011;7757;52.626;4.746;2023-05-28T02:36:25;10.65;;;3.17;;
15312;SDS011;7757;52.626;4.746;2023-05-28T02:38:53;10.65;;;2.70;;
15312;SDS011;7757;52.626;4.746;2023-05-28T02:41:19;11.18;;;2.80;;
15312;SDS011;7757;52.626;4.746;2023-05-28T02:43:44;11.13;;;2.97;;
15312;SDS011;7757;52.626;4.746;2023-05-28T02:46:10;10.43;;;2.95;;
15312;SDS011;7757;52.626;4.746;2023-05-28T02:48:35;8.80;;;2.50;;
15312;SDS011;7757;52.626;4.746;2023-05-28T02:51:01;12.63;;;3.20;;
15312;SDS011;7757;52.626;4.746;2023-05-28T02:53:29;10.40;;;2.97;;
15312;SDS011;7757;52.626;4.746;2023-05-28T02:55:58;10.93;;;2.83;;
15312;SDS011;7757;52.626;4.746;2023-05-28T02:58:29;9.38;;;2.60;;
15312;SDS011;7757;52.626;4.746;2023-05-28T03:00:58;9.55;;;2.67;;
15312;SDS011;7757;52.626;4.746;2023-05-28T03:03:23;10.75;;;2.83;;
15312;SDS011;7757;52.626;4.746;2023-05-28T03:05:49;11.05;;;2.60;;
15312;SDS011;7757;52.626;4.746;2023-05-28T03:08:16;11.10;;;2.80;;
15312;SDS011;7757;52.626;4.746;2023-05-28T03:10:44;10.45;;;3.10;;
15312;SDS011;7757;52.626;4.746;2023-05-28T03:13:12;8.88;;;2.63;;
15312;SDS011;7757;52.626;4.746;2023-05-28T03:15:38;9.70;;;2.83;;
15312;SDS011;7757;52.626;4.746;2023-05-28T03:18:03;8.20;;;2.20;;
15312;SDS011;7757;52.626;4.746;2023-05-28T03:20:29;11.55;;;2.72;;
15312;SDS011;7757;52.626;4.746;2023-05-28T03:22:58;10.65;;;2.80;;
15312;SDS011;7757;52.626;4.746;2023-05-28T03:25:24;10.55;;;2.90;;
15312;SDS011;7757;52.626;4.746;2023-05-28T03:27:51;11.43;;;3.15;;
15312;SDS011;7757;52.626;4.746;2023-05-28T03:30:17;11.48;;;2.92;;
15312;SDS011;7757;52.626;4.746;2023-05-28T03:32:42;12.20;;;2.90;;
15312;SDS011;7757;52.626;4.746;2023-05-28T03:35:13;11.02;;;3.05;;
15312;SDS011;7757;52.626;4.746;2023-05-28T03:37:39;11.05;;;2.67;;
15312;SDS011;7757;52.626;4.746;2023-05-28T03:40:04;10.60;;;2.63;;
15312;SDS011;7757;52.626;4.746;2023-05-28T03:42:35;11.55;;;2.83;;
15312;SDS011;7757;52.626;4.746;2023-05-28T03:45:01;11.48;;;2.83;;
15312;SDS011;7757;52.626;4.746;2023-05-28T03:47:27;11.25;;;2.92;;
15312;SDS011;7757;52.626;4.746;2023-05-28T03:49:55;9.18;;;2.60;;
15312;SDS011;7757;52.626;4.746;2023-05-28T03:52:21;10.55;;;2.70;;
15312;SDS011;7757;52.626;4.746;2023-05-28T03:54:46;11.27;;;2.80;;
15312;SDS011;7757;52.626;4.746;2023-05-28T03:57:12;9.68;;;2.60;;
15312;SDS011;7757;52.626;4.746;2023-05-28T03:59:37;10.43;;;2.70;;
15312;SDS011;7757;52.626;4.746;2023-05-28T04:02:05;9.20;;;2.53;;
15312;SDS011;7757;52.626;4.746;2023-05-28T04:04:31;10.70;;;2.75;;
15312;SDS011;7757;52.626;4.746;2023-05-28T04:06:56;10.43;;;2.90;;
15312;SDS011;7757;52.626;4.746;2023-05-28T04:09:21;12.18;;;2.85;;
15312;SDS011;7757;52.626;4.746;2023-05-28T04:11:47;11.30;;;3.00;;
15312;SDS011;7757;52.626;4.746;2023-05-28T04:14:12;11.27;;;2.88;;
15312;SDS011;7757;52.626;4.746;2023-05-28T04:16:38;9.35;;;2.55;;
15312;SDS011;7757;52.626;4.746;2023-05-28T04:19:03;10.27;;;2.70;;
15312;SDS011;7757;52.626;4.746;2023-05-28T04:21:31;12.90;;;2.90;;
15312;SDS011;7757;52.626;4.746;2023-05-28T04:24:03;10.32;;;2.60;;
15312;SDS011;7757;52.626;4.746;2023-05-28T04:26:31;10.60;;;2.97;;
15312;SDS011;7757;52.626;4.746;2023-05-28T04:28:57;10.57;;;2.80;;
15312;SDS011;7757;52.626;4.746;2023-05-28T04:31:25;10.77;;;3.08;;
15312;SDS011;7757;52.626;4.746;2023-05-28T04:33:53;11.65;;;2.88;;
15312;SDS011;7757;52.626;4.746;2023-05-28T04:36:25;11.73;;;2.65;;
15312;SDS011;7757;52.626;4.746;2023-05-28T04:38:54;12.15;;;3.00;;
15312;SDS011;7757;52.626;4.746;2023-05-28T04:41:22;11.27;;;3.13;;
15312;SDS011;7757;52.626;4.746;2023-05-28T04:43:48;10.88;;;3.22;;
15312;SDS011;7757;52.626;4.746;2023-05-28T04:46:14;11.13;;;2.67;;
15312;SDS011;7757;52.626;4.746;2023-05-28T04:48:39;10.23;;;2.70;;
15312;SDS011;7757;52.626;4.746;2023-05-28T04:51:17;11.60;;;2.90;;
15312;SDS011;7757;52.626;4.746;2023-05-28T04:53:43;9.05;;;2.65;;
15312;SDS011;7757;52.626;4.746;2023-05-28T04:56:08;10.05;;;2.60;;
15312;SDS011;7757;52.626;4.746;2023-05-28T04:58:35;9.40;;;2.70;;
15312;SDS011;7757;52.626;4.746;2023-05-28T05:01:00;10.52;;;2.83;;
15312;SDS011;7757;52.626;4.746;2023-05-28T05:03:26;12.27;;;3.10;;
15312;SDS011;7757;52.626;4.746;2023-05-28T05:05:52;11.82;;;3.05;;
15312;SDS011;7757;52.626;4.746;2023-05-28T05:08:17;13.57;;;3.53;;
15312;SDS011;7757;52.626;4.746;2023-05-28T05:10:43;11.25;;;2.60;;
15312;SDS011;7757;52.626;4.746;2023-05-28T05:13:08;11.32;;;2.75;;
15312;SDS011;7757;52.626;4.746;2023-05-28T05:15:33;11.15;;;2.92;;
15312;SDS011;7757;52.626;4.746;2023-05-28T05:17:59;11.32;;;3.08;;
15312;SDS011;7757;52.626;4.746;2023-05-28T05:20:25;11.82;;;3.00;;
15312;SDS011;7757;52.626;4.746;2023-05-28T05:22:52;11.35;;;2.97;;
15312;SDS011;7757;52.626;4.746;2023-05-28T05:25:17;11.77;;;2.72;;
15312;SDS011;7757;52.626;4.746;2023-05-28T05:27:42;10.90;;;2.83;;
15312;SDS011;7757;52.626;4.746;2023-05-28T05:30:08;11.25;;;3.00;;
15312;SDS011;7757;52.626;4.746;2023-05-28T05:32:33;10.52;;;2.65;;
15312;SDS011;7757;52.626;4.746;2023-05-28T05:34:59;10.30;;;2.75;;
15312;SDS011;7757;52.626;4.746;2023-05-28T05:37:24;11.43;;;3.03;;
15312;SDS011;7757;52.626;4.746;2023-05-28T05:39:50;10.68;;;3.25;;
15312;SDS011;7757;52.626;4.746;2023-05-28T05:42:15;10.25;;;2.70;;
15312;SDS011;7757;52.626;4.746;2023-05-28T05:44:41;10.20;;;2.88;;
15312;SDS011;7757;52.626;4.746;2023-05-28T05:47:06;11.38;;;3.17;;
15312;SDS011;7757;52.626;4.746;2023-05-28T05:49:31;10.50;;;3.20;;
15312;SDS011;7757;52.626;4.746;2023-05-28T05:51:57;11.57;;;3.13;;
15312;SDS011;7757;52.626;4.746;2023-05-28T05:54:22;9.77;;;2.95;;
15312;SDS011;7757;52.626;4.746;2023-05-28T05:56:47;10.35;;;2.50;;
15312;SDS011;7757;52.626;4.746;2023-05-28T05:59:13;12.13;;;3.13;;
15312;SDS011;7757;52.626;4.746;2023-05-28T06:01:42;10.93;;;3.25;;
15312;SDS011;7757;52.626;4.746;2023-05-28T06:04:07;10.63;;;3.20;;
15312;SDS011;7757;52.626;4.746;2023-05-28T06:06:36;12.38;;;3.20;;
15312;SDS011;7757;52.626;4.746;2023-05-28T06:09:02;10.00;;;3.00;;
15312;SDS011;7757;52.626;4.746;2023-05-28T06:11:28;11.02;;;3.25;;
15312;SDS011;7757;52.626;4.746;2023-05-28T06:13:53;10.20;;;2.90;;
15312;SDS011;7757;52.626;4.746;2023-05-28T06:16:19;13.77;;;3.65;;
15312;SDS011;7757;52.626;4.746;2023-05-28T06:18:45;11.75;;;3.13;;
15312;SDS011;7757;52.626;4.746;2023-05-28T06:21:10;11.60;;;3.40;;
15312;SDS011;7757;52.626;4.746;2023-05-28T06:23:36;11.15;;;3.22;;
15312;SDS011;7757;52.626;4.746;2023-05-28T06:26:02;10.30;;;3.03;;
15312;SDS011;7757;52.626;4.746;2023-05-28T06:28:28;10.82;;;3.15;;
15312;SDS011;7757;52.626;4.746;2023-05-28T06:30:54;12.43;;;3.42;;
15312;SDS011;7757;52.626;4.746;2023-05-28T06:33:20;11.35;;;3.33;;
15312;SDS011;7757;52.626;4.746;2023-05-28T06:35:45;9.90;;;3.03;;
15312;SDS011;7757;52.626;4.746;2023-05-28T06:38:11;10.93;;;3.05;;
15312;SDS011;7757;52.626;4.746;2023-05-28T06:40:36;12.90;;;3.53;;
15312;SDS011;7757;52.626;4.746;2023-05-28T06:43:02;10.48;;;3.20;;
15312;SDS011;7757;52.626;4.746;2023-05-28T06:45:27;13.68;;;3.88;;
15312;SDS011;7757;52.626;4.746;2023-05-28T06:47:53;11.80;;;3.50;;
15312;SDS011;7757;52.626;4.746;2023-05-28T06:50:19;10.95;;;3.42;;
15312;SDS011;7757;52.626;4.746;2023-05-28T06:52:44;11.45;;;3.60;;
15312;SDS011;7757;52.626;4.746;2023-05-28T06:55:13;11.40;;;3.25;;
15312;SDS011;7757;52.626;4.746;2023-05-28T06:57:38;11.80;;;3.30;;
15312;SDS011;7757;52.626;4.746;2023-05-28T07:00:04;14.30;;;3.80;;
15312;SDS011;7757;52.626;4.746;2023-05-28T07:02:48;11.90;;;3.30;;
15312;SDS011;7757;52.626;4.746;2023-05-28T07:05:13;10.77;;;3.30;;
15312;SDS011;7757;52.626;4.746;2023-05-28T07:07:41;12.05;;;3.50;;
15312;SDS011;7757;52.626;4.746;2023-05-28T07:10:07;11.57;;;3.30;;
15312;SDS011;7757;52.626;4.746;2023-05-28T07:12:34;12.88;;;4.10;;
15312;SDS011;7757;52.626;4.746;2023-05-28T07:14:59;12.88;;;3.40;;
15312;SDS011;7757;52.626;4.746;2023-05-28T07:17:25;11.65;;;3.40;;
15312;SDS011;7757;52.626;4.746;2023-05-28T07:19:50;10.70;;;3.33;;
15312;SDS011;7757;52.626;4.746;2023-05-28T07:22:15;12.95;;;4.00;;
15312;SDS011;7757;52.626;4.746;2023-05-28T07:24:41;11.15;;;3.25;;
15312;SDS011;7757;52.626;4.746;2023-05-28T07:27:06;13.77;;;4.00;;
15312;SDS011;7757;52.626;4.746;2023-05-28T07:29:32;14.20;;;3.75;;
15312;SDS011;7757;52.626;4.746;2023-05-28T07:32:03;12.32;;;3.35;;
15312;SDS011;7757;52.626;4.746;2023-05-28T07:34:29;12.27;;;3.20;;
15312;SDS011;7757;52.626;4.746;2023-05-28T07:36:54;10.85;;;3.40;;
15312;SDS011;7757;52.626;4.746;2023-05-28T07:39:20;11.25;;;3.13;;
15312;SDS011;7757;52.626;4.746;2023-05-28T07:41:46;12.63;;;3.15;;
15312;SDS011;7757;52.626;4.746;2023-05-28T07:44:16;15.07;;;3.80;;
15312;SDS011;7757;52.626;4.746;2023-05-28T07:46:42;12.45;;;3.70;;
15312;SDS011;7757;52.626;4.746;2023-05-28T07:49:07;13.63;;;3.85;;
15312;SDS011;7757;52.626;4.746;2023-05-28T07:51:32;11.85;;;3.35;;
15312;SDS011;7757;52.626;4.746;2023-05-28T07:53:58;11.73;;;3.08;;
15312;SDS011;7757;52.626;4.746;2023-05-28T07:56:23;13.35;;;3.45;;
15312;SDS011;7757;52.626;4.746;2023-05-28T07:58:49;14.40;;;3.60;;
15312;SDS011;7757;52.626;4.746;2023-05-28T08:01:14;13.30;;;3.63;;
15312;SDS011;7757;52.626;4.746;2023-05-28T08:03:40;11.98;;;3.95;;
15312;SDS011;7757;52.626;4.746;2023-05-28T08:06:06;11.55;;;3.65;;
15312;SDS011;7757;52.626;4.746;2023-05-28T08:08:31;12.88;;;3.25;;
15312;SDS011;7757;52.626;4.746;2023-05-28T08:10:57;14.55;;;3.50;;
15312;SDS011;7757;52.626;4.746;2023-05-28T08:13:23;12.00;;;3.40;;
15312;SDS011;7757;52.626;4.746;2023-05-28T08:15:51;15.93;;;4.20;;
15312;SDS011;7757;52.626;4.746;2023-05-28T08:18:17;12.88;;;3.60;;
15312;SDS011;7757;52.626;4.746;2023-05-28T08:20:42;13.60;;;3.50;;
15312;SDS011;7757;52.626;4.746;2023-05-28T08:23:08;14.07;;;4.10;;
15312;SDS011;7757;52.626;4.746;2023-05-28T08:25:33;10.60;;;3.45;;
15312;SDS011;7757;52.626;4.746;2023-05-28T08:27:58;13.95;;;3.72;;
15312;SDS011;7757;52.626;4.746;2023-05-28T08:30:24;13.75;;;3.67;;
15312;SDS011;7757;52.626;4.746;2023-05-28T08:32:50;12.13;;;3.80;;
15312;SDS011;7757;52.626;4.746;2023-05-28T08:35:15;18.80;;;3.88;;
15312;SDS011;7757;52.626;4.746;2023-05-28T08:37:41;12.25;;;3.22;;
15312;SDS011;7757;52.626;4.746;2023-05-28T08:40:07;13.27;;;3.33;;
15312;SDS011;7757;52.626;4.746;2023-05-28T08:42:34;11.68;;;3.85;;
15312;SDS011;7757;52.626;4.746;2023-05-28T08:45:00;12.82;;;3.78;;
15312;SDS011;7757;52.626;4.746;2023-05-28T08:47:32;12.55;;;3.40;;
15312;SDS011;7757;52.626;4.746;2023-05-28T08:49:59;12.13;;;3.78;;
15312;SDS011;7757;52.626;4.746;2023-05-28T08:52:28;11.50;;;3.35;;
15312;SDS011;7757;52.626;4.746;2023-05-28T08:54:56;12.85;;;3.65;;
15312;SDS011;7757;52.626;4.746;2023-05-28T08:57:23;13.15;;;3.53;;
15312;SDS011;7757;52.626;4.746;2023-05-28T08:59:49;13.50;;;3.67;;
15312;SDS011;7757;52.626;4.746;2023-05-28T09:02:15;13.32;;;4.13;;
15312;SDS011;7757;52.626;4.746;2023-05-28T09:04:41;13.98;;;4.22;;
15312;SDS011;7757;52.626;4.746;2023-05-28T09:07:11;11.02;;;3.10;;
15312;SDS011;7757;52.626;4.746;2023-05-28T09:09:37;15.23;;;4.20;;
15312;SDS011;7757;52.626;4.746;2023-05-28T09:12:03;13.13;;;3.75;;
15312;SDS011;7757;52.626;4.746;2023-05-28T09:14:37;13.82;;;3.63;;
15312;SDS011;7757;52.626;4.746;2023-05-28T09:17:04;15.15;;;3.90;;
15312;SDS011;7757;52.626;4.746;2023-05-28T09:19:29;13.15;;;3.67;;
15312;SDS011;7757;52.626;4.746;2023-05-28T09:21:56;14.52;;;3.42;;
15312;SDS011;7757;52.626;4.746;2023-05-28T09:24:25;12.88;;;4.00;;
15312;SDS011;7757;52.626;4.746;2023-05-28T09:26:54;12.13;;;3.55;;
15312;SDS011;7757;52.626;4.746;2023-05-28T09:29:23;12.60;;;3.75;;
15312;SDS011;7757;52.626;4.746;2023-05-28T09:31:56;14.45;;;4.05;;
15312;SDS011;7757;52.626;4.746;2023-05-28T09:34:29;12.57;;;3.55;;
15312;SDS011;7757;52.626;4.746;2023-05-28T09:37:02;15.15;;;3.90;;
15312;SDS011;7757;52.626;4.746;2023-05-28T09:39:29;15.07;;;3.85;;
15312;SDS011;7757;52.626;4.746;2023-05-28T09:41:58;13.98;;;3.40;;
15312;SDS011;7757;52.626;4.746;2023-05-28T09:44:34;12.02;;;3.70;;
15312;SDS011;7757;52.626;4.746;2023-05-28T09:47:01;12.57;;;3.83;;
15312;SDS011;7757;52.626;4.746;2023-05-28T09:49:36;13.05;;;3.60;;
15312;SDS011;7757;52.626;4.746;2023-05-28T09:52:05;11.43;;;3.50;;
15312;SDS011;7757;52.626;4.746;2023-05-28T09:54:33;12.20;;;3.47;;
15312;SDS011;7757;52.626;4.746;2023-05-28T09:57:01;11.35;;;3.60;;
15312;SDS011;7757;52.626;4.746;2023-05-28T09:59:31;12.90;;;3.90;;
15312;SDS011;7757;52.626;4.746;2023-05-28T10:02:00;14.40;;;3.80;;
15312;SDS011;7757;52.626;4.746;2023-05-28T10:04:52;13.18;;;4.13;;
15312;SDS011;7757;52.626;4.746;2023-05-28T10:07:20;12.32;;;3.80;;
15312;SDS011;7757;52.626;4.746;2023-05-28T10:09:47;14.30;;;3.58;;
15312;SDS011;7757;52.626;4.746;2023-05-28T10:12:17;13.30;;;3.90;;
15312;SDS011;7757;52.626;4.746;2023-05-28T10:14:46;11.80;;;3.85;;
15312;SDS011;7757;52.626;4.746;2023-05-28T10:17:17;12.02;;;3.78;;
15312;SDS011;7757;52.626;4.746;2023-05-28T10:19:45;14.13;;;3.45;;
15312;SDS011;7757;52.626;4.746;2023-05-28T10:22:14;15.05;;;3.80;;
15312;SDS011;7757;52.626;4.746;2023-05-28T10:24:41;14.23;;;3.80;;
15312;SDS011;7757;52.626;4.746;2023-05-28T10:27:07;13.00;;;4.22;;
15312;SDS011;7757;52.626;4.746;2023-05-28T10:29:38;16.40;;;4.47;;
15312;SDS011;7757;52.626;4.746;2023-05-28T10:32:06;12.38;;;4.30;;
15312;SDS011;7757;52.626;4.746;2023-05-28T10:34:32;12.45;;;4.22;;
15312;SDS011;7757;52.626;4.746;2023-05-28T10:37:03;13.25;;;3.95;;
15312;SDS011;7757;52.626;4.746;2023-05-28T10:39:46;13.40;;;3.95;;
15312;SDS011;7757;52.626;4.746;2023-05-28T10:42:15;13.82;;;4.05;;
15312;SDS011;7757;52.626;4.746;2023-05-28T10:47:35;14.98;;;4.20;;
15312;SDS011;7757;52.626;4.746;2023-05-28T10:50:09;11.68;;;3.60;;
15312;SDS011;7757;52.626;4.746;2023-05-28T10:55:45;16.08;;;4.43;;
15312;SDS011;7757;52.626;4.746;2023-05-28T10:58:16;13.80;;;3.67;;
15312;SDS011;7757;52.626;4.746;2023-05-28T11:00:57;12.32;;;4.18;;
15312;SDS011;7757;52.626;4.746;2023-05-28T11:03:59;12.98;;;4.13;;
15312;SDS011;7757;52.626;4.746;2023-05-28T11:06:19;14.30;;;4.07;;
15312;SDS011;7757;52.626;4.746;2023-05-28T11:08:48;12.25;;;3.95;;
15312;SDS011;7757;52.626;4.746;2023-05-28T11:11:15;12.88;;;4.03;;
15312;SDS011;7757;52.626;4.746;2023-05-28T11:13:48;14.82;;;4.18;;
15312;SDS011;7757;52.626;4.746;2023-05-28T11:16:17;12.32;;;3.95;;
15312;SDS011;7757;52.626;4.746;2023-05-28T11:18:59;13.32;;;4.10;;
15312;SDS011;7757;52.626;4.746;2023-05-28T11:21:27;12.57;;;4.35;;
15312;SDS011;7757;52.626;4.746;2023-05-28T11:24:02;14.32;;;3.83;;
15312;SDS011;7757;52.626;4.746;2023-05-28T11:26:31;11.82;;;4.15;;
15312;SDS011;7757;52.626;4.746;2023-05-28T11:28:57;12.95;;;4.10;;
15312;SDS011;7757;52.626;4.746;2023-05-28T11:31:23;15.25;;;4.18;;
15312;SDS011;7757;52.626;4.746;2023-05-28T11:33:49;11.93;;;4.30;;
15312;SDS011;7757;52.626;4.746;2023-05-28T11:36:14;11.57;;;4.00;;
15312;SDS011;7757;52.626;4.746;2023-05-28T11:38:43;11.90;;;3.97;;
15312;SDS011;7757;52.626;4.746;2023-05-28T11:41:08;12.13;;;4.07;;
15312;SDS011;7757;52.626;4.746;2023-05-28T11:43:33;12.15;;;4.28;;
15312;SDS011;7757;52.626;4.746;2023-05-28T11:45:59;13.52;;;4.22;;
15312;SDS011;7757;52.626;4.746;2023-05-28T11:48:25;10.77;;;3.50;;
15312;SDS011;7757;52.626;4.746;2023-05-28T11:50:59;12.50;;;4.07;;
15312;SDS011;7757;52.626;4.746;2023-05-28T11:53:41;13.27;;;4.30;;
15312;SDS011;7757;52.626;4.746;2023-05-28T11:56:07;11.82;;;3.70;;
15312;SDS011;7757;52.626;4.746;2023-05-28T11:58:34;13.05;;;4.20;;
15312;SDS011;7757;52.626;4.746;2023-05-28T12:01:02;13.23;;;4.20;;
15312;SDS011;7757;52.626;4.746;2023-05-28T12:03:28;14.85;;;4.50;;
15312;SDS011;7757;52.626;4.746;2023-05-28T12:05:53;12.27;;;4.05;;
15312;SDS011;7757;52.626;4.746;2023-05-28T12:08:19;13.90;;;4.38;;
15312;SDS011;7757;52.626;4.746;2023-05-28T12:10:44;13.75;;;4.38;;
15312;SDS011;7757;52.626;4.746;2023-05-28T12:13:11;13.15;;;4.10;;
15312;SDS011;7757;52.626;4.746;2023-05-28T12:15:37;14.05;;;4.30;;
15312;SDS011;7757;52.626;4.746;2023-05-28T12:18:06;14.23;;;4.05;;
15312;SDS011;7757;52.626;4.746;2023-05-28T12:22:59;13.10;;;4.03;;
15312;SDS011;7757;52.626;4.746;2023-05-28T12:25:48;13.40;;;4.50;;
15312;SDS011;7757;52.626;4.746;2023-05-28T12:28:15;13.68;;;3.88;;
15312;SDS011;7757;52.626;4.746;2023-05-28T12:30:42;13.38;;;4.35;;
15312;SDS011;7757;52.626;4.746;2023-05-28T12:33:09;11.82;;;3.60;;
15312;SDS011;7757;52.626;4.746;2023-05-28T12:35:35;12.80;;;4.05;;
15312;SDS011;7757;52.626;4.746;2023-05-28T12:38:01;12.25;;;4.35;;
15312;SDS011;7757;52.626;4.746;2023-05-28T12:40:30;12.15;;;4.03;;
15312;SDS011;7757;52.626;4.746;2023-05-28T12:42:55;12.40;;;3.80;;
15312;SDS011;7757;52.626;4.746;2023-05-28T12:45:27;11.75;;;3.75;;
15312;SDS011;7757;52.626;4.746;2023-05-28T12:47:55;13.35;;;4.53;;
15312;SDS011;7757;52.626;4.746;2023-05-28T12:50:21;12.35;;;3.75;;
15312;SDS011;7757;52.626;4.746;2023-05-28T12:52:49;11.75;;;4.10;;
15312;SDS011;7757;52.626;4.746;2023-05-28T12:55:15;14.60;;;3.67;;
15312;SDS011;7757;52.626;4.746;2023-05-28T12:57:40;12.63;;;3.53;;
15312;SDS011;7757;52.626;4.746;2023-05-28T13:00:06;12.63;;;4.07;;
15312;SDS011;7757;52.626;4.746;2023-05-28T13:02:35;15.05;;;3.55;;
15312;SDS011;7757;52.626;4.746;2023-05-28T13:05:04;12.13;;;3.75;;
15312;SDS011;7757;52.626;4.746;2023-05-28T13:07:29;12.77;;;3.70;;
15312;SDS011;7757;52.626;4.746;2023-05-28T13:09:56;11.18;;;3.30;;
15312;SDS011;7757;52.626;4.746;2023-05-28T13:12:24;13.18;;;3.88;;
15312;SDS011;7757;52.626;4.746;2023-05-28T13:14:50;12.35;;;3.42;;
15312;SDS011;7757;52.626;4.746;2023-05-28T13:17:15;10.45;;;3.13;;
15312;SDS011;7757;52.626;4.746;2023-05-28T13:19:47;11.27;;;3.28;;
15312;SDS011;7757;52.626;4.746;2023-05-28T13:22:13;12.98;;;3.65;;
15312;SDS011;7757;52.626;4.746;2023-05-28T13:24:41;11.50;;;3.05;;
15312;SDS011;7757;52.626;4.746;2023-05-28T13:27:06;11.00;;;3.33;;
15312;SDS011;7757;52.626;4.746;2023-05-28T13:29:34;11.68;;;3.30;;
15312;SDS011;7757;52.626;4.746;2023-05-28T13:32:00;11.18;;;3.38;;
15312;SDS011;7757;52.626;4.746;2023-05-28T13:34:25;11.90;;;3.45;;
15312;SDS011;7757;52.626;4.746;2023-05-28T13:36:50;9.88;;;3.00;;
15312;SDS011;7757;52.626;4.746;2023-05-28T13:39:19;11.25;;;3.40;;
15312;SDS011;7757;52.626;4.746;2023-05-28T13:41:47;11.57;;;3.20;;
15312;SDS011;7757;52.626;4.746;2023-05-28T13:44:17;11.43;;;3.15;;
15312;SDS011;7757;52.626;4.746;2023-05-28T13:46:42;11.15;;;3.22;;
15312;SDS011;7757;52.626;4.746;2023-05-28T13:49:07;11.57;;;3.25;;
15312;SDS011;7757;52.626;4.746;2023-05-28T13:51:33;11.95;;;3.03;;
15312;SDS011;7757;52.626;4.746;2023-05-28T13:53:59;12.15;;;3.15;;
15312;SDS011;7757;52.626;4.746;2023-05-28T13:56:24;12.20;;;3.40;;
15312;SDS011;7757;52.626;4.746;2023-05-28T13:58:49;12.63;;;3.30;;
15312;SDS011;7757;52.626;4.746;2023-05-28T14:01:15;11.00;;;3.25;;
15312;SDS011;7757;52.626;4.746;2023-05-28T14:03:40;11.52;;;3.00;;
15312;SDS011;7757;52.626;4.746;2023-05-28T14:06:10;12.80;;;3.30;;
15312;SDS011;7757;52.626;4.746;2023-05-28T14:08:36;10.45;;;3.20;;
15312;SDS011;7757;52.626;4.746;2023-05-28T14:11:01;12.40;;;3.60;;
15312;SDS011;7757;52.626;4.746;2023-05-28T14:13:27;13.82;;;3.45;;
15312;SDS011;7757;52.626;4.746;2023-05-28T14:15:56;11.90;;;3.30;;
15312;SDS011;7757;52.626;4.746;2023-05-28T14:18:25;11.13;;;2.97;;
15312;SDS011;7757;52.626;4.746;2023-05-28T14:20:51;8.73;;;2.65;;
15312;SDS011;7757;52.626;4.746;2023-05-28T14:23:16;10.95;;;2.80;;
15312;SDS011;7757;52.626;4.746;2023-05-28T14:25:41;13.43;;;3.17;;
15312;SDS011;7757;52.626;4.746;2023-05-28T14:28:07;11.25;;;3.03;;
15312;SDS011;7757;52.626;4.746;2023-05-28T14:30:32;11.20;;;2.70;;
15312;SDS011;7757;52.626;4.746;2023-05-28T14:32:57;11.77;;;3.20;;
15312;SDS011;7757;52.626;4.746;2023-05-28T14:35:23;11.30;;;2.85;;
15312;SDS011;7757;52.626;4.746;2023-05-28T14:37:54;10.52;;;3.05;;
15312;SDS011;7757;52.626;4.746;2023-05-28T14:40:20;10.95;;;2.78;;
15312;SDS011;7757;52.626;4.746;2023-05-28T14:42:46;13.10;;;3.03;;
15312;SDS011;7757;52.626;4.746;2023-05-28T14:45:12;12.68;;;3.30;;
15312;SDS011;7757;52.626;4.746;2023-05-28T14:47:38;13.25;;;3.50;;
15312;SDS011;7757;52.626;4.746;2023-05-28T14:50:04;11.50;;;2.80;;
15312;SDS011;7757;52.626;4.746;2023-05-28T14:52:30;12.25;;;2.60;;
15312;SDS011;7757;52.626;4.746;2023-05-28T14:54:56;11.60;;;2.83;;
15312;SDS011;7757;52.626;4.746;2023-05-28T14:57:22;15.88;;;3.30;;